createdAt,value
2022-12-15T00:02:38.170Z,40.08
2022-12-15T00:05:24.612Z,48.28
2022-12-15T00:08:12.972Z,44.42
2022-12-15T00:11:05.170Z,39.95
2022-12-15T00:13:52.456Z,40.00
2022-12-15T00:16:38.375Z,38.10
2022-12-15T00:19:25.855Z,42.17
2022-12-15T00:22:11.731Z,39.22
2022-12-15T00:24:57.530Z,43.30
2022-12-15T00:27:43.908Z,40.55
2022-12-15T00:30:30.463Z,35.08
2022-12-15T00:33:30.764Z,44.22
2022-12-15T00:36:18.425Z,41.45
2022-12-15T00:38:49.932Z,38.13
2022-12-15T00:41:23.564Z,41.80
2022-12-15T00:44:09.887Z,37.50
2022-12-15T00:46:56.274Z,36.05
2022-12-15T00:49:54.482Z,37.25
2022-12-15T00:52:40.863Z,40.85
2022-12-15T00:55:29.274Z,46.13
2022-12-15T00:58:15.304Z,35.33
2022-12-15T01:01:03.620Z,40.90
2022-12-15T01:03:56.763Z,42.57
2022-12-15T01:06:42.997Z,40.72
2022-12-15T01:09:31.191Z,39.67
2022-12-15T01:12:17.062Z,48.67
2022-12-15T01:15:03.357Z,43.42
2022-12-15T01:17:53.649Z,51.22
2022-12-15T01:20:25.172Z,40.03
2022-12-15T01:22:54.738Z,41.42
2022-12-15T01:25:27.534Z,45.65
2022-12-15T01:27:56.178Z,46.63
2022-12-15T01:30:26.017Z,53.00
2022-12-15T01:33:14.173Z,45.13
2022-12-15T01:35:58.792Z,49.38
2022-12-15T01:38:50.787Z,36.65
2022-12-15T01:41:40.500Z,38.35
2022-12-15T01:44:28.116Z,46.35
2022-12-15T01:46:59.401Z,37.05
2022-12-15T01:49:29.377Z,44.13
2022-12-15T01:52:01.642Z,43.38
2022-12-15T01:54:36.302Z,43.70
2022-12-15T01:57:07.480Z,46.33
2022-12-15T01:59:38.764Z,47.47
2022-12-15T02:02:10.801Z,41.53
2022-12-15T02:04:45.481Z,50.92
2022-12-15T02:07:15.094Z,47.33
2022-12-15T02:09:45.217Z,49.67
2022-12-15T02:12:19.554Z,55.20
2022-12-15T02:14:56.456Z,53.10
2022-12-15T02:17:37.535Z,55.15
2022-12-15T02:20:08.056Z,51.85
2022-12-15T02:22:39.160Z,56.03
2022-12-15T02:25:07.035Z,54.42
2022-12-15T02:27:54.088Z,54.92
2022-12-15T02:30:26.230Z,50.58
2022-12-15T02:32:59.416Z,56.25
2022-12-15T02:37:55.645Z,56.75
2022-12-15T02:40:23.693Z,59.70
2022-12-15T02:42:56.564Z,60.50
2022-12-15T02:45:34.627Z,54.88
2022-12-15T02:48:12.286Z,66.60
2022-12-15T02:50:52.153Z,65.88
2022-12-15T02:53:20.229Z,68.38
2022-12-15T02:55:55.259Z,68.78
2022-12-15T02:58:36.460Z,62.80
2022-12-15T03:01:27.828Z,63.63
2022-12-15T03:04:03.734Z,61.03
2022-12-15T03:06:39.132Z,65.60
2022-12-15T03:09:16.100Z,59.90
2022-12-15T03:12:02.312Z,68.80
2022-12-15T03:14:44.218Z,62.67
2022-12-15T03:17:34.330Z,63.08
2022-12-15T03:20:03.871Z,63.38
2022-12-15T03:22:33.024Z,59.60
2022-12-15T03:25:04.135Z,76.40
2022-12-15T03:27:36.133Z,64.25
2022-12-15T03:30:25.472Z,60.30
2022-12-15T03:33:12.988Z,64.72
2022-12-15T03:35:57.066Z,76.90
2022-12-15T03:38:26.655Z,60.60
2022-12-15T03:40:55.264Z,56.38
2022-12-15T03:43:26.098Z,67.60
2022-12-15T03:45:55.992Z,53.08
2022-12-15T03:48:25.042Z,66.57
2022-12-15T03:50:55.727Z,49.53
2022-12-15T03:53:26.785Z,59.78
2022-12-15T03:55:55.857Z,66.95
2022-12-15T03:58:25.219Z,48.53
2022-12-15T04:00:57.577Z,68.82
2022-12-15T04:03:32.123Z,49.78
2022-12-15T04:06:02.208Z,79.13
2022-12-15T04:08:32.705Z,70.07
2022-12-15T04:11:01.910Z,63.45
2022-12-15T04:13:35.259Z,63.80
2022-12-15T04:16:05.672Z,63.83
2022-12-15T04:18:39.793Z,64.57
2022-12-15T04:21:09.424Z,56.10
2022-12-15T04:23:54.533Z,45.35
2022-12-15T04:26:40.568Z,69.93
2022-12-15T04:29:26.631Z,63.53
2022-12-15T04:32:12.569Z,75.97
2022-12-15T04:34:59.179Z,80.25
2022-12-15T04:37:45.963Z,90.25
2022-12-15T04:40:33.750Z,88.32
2022-12-15T04:43:19.728Z,74.43
2022-12-15T04:46:09.027Z,72.65
2022-12-15T04:48:54.708Z,59.08
2022-12-15T04:51:42.912Z,68.85
2022-12-15T04:54:30.661Z,87.43
2022-12-15T04:57:16.905Z,65.32
2022-12-15T05:00:05.293Z,81.45
2022-12-15T05:03:12.350Z,75.35
2022-12-15T05:06:00.991Z,70.85
2022-12-15T05:08:50.509Z,69.88
2022-12-15T05:11:37.353Z,78.60
2022-12-15T05:14:23.714Z,94.70
2022-12-15T05:17:12.038Z,84.25
2022-12-15T05:19:59.036Z,94.55
2022-12-15T05:22:45.720Z,77.72
2022-12-15T05:25:31.643Z,68.72
2022-12-15T05:28:17.868Z,65.80
2022-12-15T05:31:04.559Z,57.40
2022-12-15T05:33:34.772Z,73.03
2022-12-15T05:36:06.215Z,68.75
2022-12-15T05:38:35.687Z,55.70
2022-12-15T05:41:04.078Z,87.05
2022-12-15T05:43:34.156Z,66.22
2022-12-15T05:46:05.940Z,69.43
2022-12-15T05:48:34.901Z,57.97
2022-12-15T05:51:10.408Z,69.32
2022-12-15T05:53:42.308Z,56.88
2022-12-15T05:56:14.921Z,66.53
2022-12-15T05:58:45.687Z,63.83
2022-12-15T06:01:16.428Z,65.07
2022-12-15T06:03:47.246Z,82.72
2022-12-15T06:06:18.367Z,69.60
2022-12-15T06:11:20.569Z,62.92
2022-12-15T06:13:49.426Z,61.40
2022-12-15T06:16:23.425Z,74.13
2022-12-15T06:18:55.830Z,66.35
2022-12-15T06:21:26.704Z,83.57
2022-12-15T06:23:58.215Z,80.85
2022-12-15T06:26:44.880Z,79.95
2022-12-15T06:29:16.077Z,83.68
2022-12-15T06:31:47.772Z,74.60
2022-12-15T06:34:18.771Z,91.57
2022-12-15T06:36:50.300Z,85.40
2022-12-15T06:39:19.516Z,78.50
2022-12-15T06:41:52.374Z,75.28
2022-12-15T06:44:22.494Z,83.82
2022-12-15T06:46:52.825Z,83.35
2022-12-15T06:49:24.128Z,101.10
2022-12-15T06:51:52.838Z,82.80
2022-12-15T06:54:26.347Z,118.68
2022-12-15T06:56:54.718Z,82.90
2022-12-15T06:59:23.947Z,89.47
2022-12-15T07:01:53.954Z,83.35
2022-12-15T07:04:24.127Z,80.63
2022-12-15T07:06:56.806Z,84.50
2022-12-15T07:09:27.577Z,93.45
2022-12-15T07:11:59.040Z,71.88
2022-12-15T07:14:34.867Z,91.63
2022-12-15T07:17:06.150Z,69.45
2022-12-15T07:19:37.742Z,101.18
2022-12-15T07:22:08.837Z,85.07
2022-12-15T07:24:39.657Z,90.45
2022-12-15T07:27:10.829Z,93.15
2022-12-15T07:29:41.154Z,90.57
2022-12-15T07:32:12.891Z,77.68
2022-12-15T07:34:41.827Z,96.05
2022-12-15T07:37:11.251Z,82.95
2022-12-15T07:39:39.573Z,92.95
2022-12-15T07:42:09.812Z,84.93
2022-12-15T07:44:40.824Z,83.15
2022-12-15T07:47:11.888Z,80.75
2022-12-15T07:49:42.478Z,79.07
2022-12-15T07:52:11.596Z,94.13
2022-12-15T07:54:40.894Z,85.82
2022-12-15T07:57:10.346Z,85.45
2022-12-15T07:59:40.084Z,91.90
2022-12-15T08:02:10.907Z,61.47
2022-12-15T08:04:41.247Z,65.65
2022-12-15T08:07:10.280Z,87.10
2022-12-15T08:09:40.279Z,93.40
2022-12-15T08:12:08.654Z,80.53
2022-12-15T08:14:38.211Z,92.30
2022-12-15T08:17:10.032Z,83.00
2022-12-15T08:19:41.269Z,87.40
2022-12-15T08:22:15.342Z,93.53
2022-12-15T08:24:45.917Z,106.60
2022-12-15T08:27:17.125Z,84.35
2022-12-15T08:29:51.083Z,80.82
2022-12-15T08:32:24.945Z,100.38
2022-12-15T08:34:55.447Z,72.85
2022-12-15T08:37:23.827Z,90.90
2022-12-15T08:39:53.695Z,100.90
2022-12-15T08:42:27.097Z,62.33
2022-12-15T08:45:00.039Z,78.13
2022-12-15T08:47:29.125Z,117.20
2022-12-15T08:49:57.911Z,103.05
2022-12-15T08:52:28.317Z,70.65
2022-12-15T08:54:56.690Z,118.22
2022-12-15T08:57:27.250Z,97.47
2022-12-15T08:59:55.543Z,106.43
2022-12-15T09:02:26.093Z,121.63
2022-12-15T09:04:56.384Z,57.55
2022-12-15T09:07:24.872Z,124.57
2022-12-15T09:09:54.533Z,129.60
2022-12-15T09:12:24.973Z,127.50
2022-12-15T09:14:57.008Z,110.93
2022-12-15T09:17:28.919Z,133.63
2022-12-15T09:20:03.797Z,108.82
2022-12-15T09:22:34.382Z,141.50
2022-12-15T09:25:05.600Z,146.80
2022-12-15T09:27:37.571Z,91.55
2022-12-15T09:30:07.155Z,74.43
2022-12-15T09:32:54.749Z,123.00
2022-12-15T09:35:23.854Z,90.65
2022-12-15T09:37:54.124Z,111.63
2022-12-15T09:40:23.231Z,138.10
2022-12-15T09:43:25.606Z,139.80
2022-12-15T09:48:18.423Z,85.32
2022-12-15T09:50:48.777Z,135.73
2022-12-15T09:53:53.084Z,56.33
2022-12-15T09:56:10.536Z,117.55
2022-12-15T09:58:40.614Z,90.70
2022-12-15T10:01:09.396Z,137.70
2022-12-15T10:03:41.478Z,148.13
2022-12-15T10:06:21.280Z,123.55
2022-12-15T10:08:59.514Z,136.65
2022-12-15T10:11:28.028Z,110.45
2022-12-15T10:14:12.163Z,148.20
2022-12-15T10:16:59.459Z,136.93
2022-12-15T10:19:35.475Z,147.10
2022-12-15T10:22:04.164Z,158.23
2022-12-15T10:27:24.739Z,147.10
2022-12-15T10:30:02.346Z,149.75
2022-12-15T10:32:50.683Z,147.02
2022-12-15T10:35:28.077Z,129.65
2022-12-15T10:38:00.186Z,148.10
2022-12-15T10:40:50.495Z,133.27
2022-12-15T10:43:39.145Z,146.57
2022-12-15T10:46:15.015Z,158.65
2022-12-15T10:48:50.167Z,156.18
2022-12-15T10:51:20.402Z,122.53
2022-12-15T10:53:50.626Z,139.70
2022-12-15T10:56:33.630Z,134.93
2022-12-15T10:59:04.964Z,136.65
2022-12-15T11:01:35.677Z,107.18
2022-12-15T11:04:25.548Z,127.82
2022-12-15T11:07:02.196Z,150.70
2022-12-15T11:09:37.759Z,133.18
2022-12-15T11:12:36.940Z,154.85
2022-12-15T11:15:25.251Z,144.52
2022-12-15T11:18:06.164Z,173.55
2022-12-15T11:20:36.238Z,217.68
2022-12-15T11:23:13.166Z,177.05
2022-12-15T11:25:46.494Z,179.45
2022-12-15T11:28:29.238Z,200.63
2022-12-15T11:31:01.294Z,170.90
2022-12-15T11:33:35.309Z,129.23
2022-12-15T11:36:07.702Z,135.30
2022-12-15T11:38:47.912Z,138.45
2022-12-15T11:41:31.293Z,144.60
2022-12-15T11:44:14.147Z,110.82
2022-12-15T11:46:48.318Z,130.25
2022-12-15T11:49:19.886Z,157.20
2022-12-15T11:51:49.129Z,151.98
2022-12-15T11:54:35.776Z,150.23
2022-12-15T11:57:31.937Z,130.02
2022-12-15T12:02:31.325Z,148.20
2022-12-15T12:05:13.833Z,153.95
2022-12-15T12:07:44.896Z,100.63
2022-12-15T12:10:19.579Z,143.35
2022-12-15T12:12:54.818Z,131.88
2022-12-15T12:15:41.962Z,125.63
2022-12-15T12:18:17.822Z,148.18
2022-12-15T12:20:50.297Z,153.65
2022-12-15T12:23:23.656Z,111.85
2022-12-15T12:26:03.694Z,143.25
2022-12-15T12:28:37.015Z,126.53
2022-12-15T12:31:07.298Z,149.17
2022-12-15T12:33:44.968Z,154.63
2022-12-15T12:36:15.162Z,107.95
2022-12-15T12:38:50.485Z,136.10
2022-12-15T12:41:27.297Z,167.45
2022-12-15T12:43:58.119Z,154.43
2022-12-15T12:46:53.567Z,129.85
2022-12-15T12:49:26.371Z,136.18
2022-12-15T12:52:01.625Z,121.43
2022-12-15T12:54:36.218Z,150.05
2022-12-15T12:57:14.526Z,144.75
2022-12-15T12:59:45.188Z,133.50
2022-12-15T13:02:24.701Z,122.78
2022-12-15T13:04:58.688Z,128.68
2022-12-15T13:07:29.760Z,140.27
2022-12-15T13:10:10.070Z,136.38
2022-12-15T13:12:54.109Z,133.23
2022-12-15T13:15:30.185Z,154.63
2022-12-15T13:18:06.459Z,157.70
2022-12-15T13:20:36.475Z,177.32
2022-12-15T13:23:23.000Z,127.05
2022-12-15T13:25:57.233Z,112.20
2022-12-15T13:28:38.250Z,121.70
2022-12-15T13:31:12.238Z,130.68
2022-12-15T13:33:46.479Z,121.25
2022-12-15T13:36:35.791Z,114.78
2022-12-15T13:39:24.159Z,117.78
2022-12-15T13:45:04.717Z,118.40
2022-12-15T13:47:33.567Z,106.78
2022-12-15T13:50:12.764Z,114.47
2022-12-15T13:55:39.123Z,119.07
2022-12-15T13:58:18.984Z,120.73
2022-12-15T14:00:54.776Z,117.47
2022-12-15T14:03:27.397Z,118.55
2022-12-15T14:05:57.316Z,113.05
2022-12-15T14:08:32.951Z,113.53
2022-12-15T14:11:16.501Z,109.40
2022-12-15T14:13:54.260Z,108.28
2022-12-15T14:16:24.649Z,105.10
2022-12-15T14:19:04.730Z,110.63
2022-12-15T14:21:34.413Z,97.93
2022-12-15T14:24:36.995Z,110.85
2022-12-15T14:26:51.506Z,118.68
2022-12-15T14:29:20.659Z,101.22
2022-12-15T14:31:55.110Z,103.32
2022-12-15T14:34:27.039Z,87.05
2022-12-15T14:36:59.551Z,97.53
2022-12-15T14:39:41.611Z,102.05
2022-12-15T14:42:17.161Z,87.72
2022-12-15T14:44:49.733Z,99.28
2022-12-15T14:47:22.806Z,88.97
2022-12-15T14:52:26.885Z,92.13
2022-12-15T14:55:03.258Z,95.95
2022-12-15T14:57:49.346Z,95.90
2022-12-15T15:00:29.797Z,92.70
2022-12-15T15:03:19.689Z,86.57
2022-12-15T15:05:52.576Z,89.88
2022-12-15T15:08:27.116Z,88.72
2022-12-15T15:10:59.970Z,87.03
2022-12-15T15:13:39.984Z,85.82
2022-12-15T15:16:16.217Z,86.63
2022-12-15T15:18:45.726Z,93.70
2022-12-15T15:21:21.254Z,95.32
2022-12-15T15:24:03.137Z,97.03
2022-12-15T15:26:32.867Z,87.57
2022-12-15T15:29:03.319Z,105.47
2022-12-15T15:31:40.939Z,89.05
2022-12-15T15:34:12.491Z,93.03
2022-12-15T15:36:43.545Z,91.10
2022-12-15T15:39:15.041Z,125.95
2022-12-15T15:41:43.842Z,104.75
2022-12-15T15:44:15.730Z,109.15
2022-12-15T15:46:52.921Z,118.87
2022-12-15T15:49:23.465Z,104.40
2022-12-15T15:51:53.657Z,103.85
2022-12-15T15:54:40.448Z,119.25
2022-12-15T15:57:20.209Z,103.50
2022-12-15T15:59:54.653Z,99.68
2022-12-15T16:02:23.629Z,95.50
2022-12-15T16:04:55.282Z,100.18
2022-12-15T16:07:25.771Z,95.60
2022-12-15T16:09:56.164Z,99.70
2022-12-15T16:12:42.321Z,103.43
2022-12-15T16:15:15.323Z,97.20
2022-12-15T16:17:50.936Z,106.68
2022-12-15T16:20:23.062Z,117.95
2022-12-15T16:22:58.872Z,103.60
2022-12-15T16:25:48.567Z,102.40
2022-12-15T16:28:21.434Z,95.97
2022-12-15T16:30:52.813Z,97.13
2022-12-15T16:33:22.496Z,88.20
2022-12-15T16:35:51.972Z,95.80
2022-12-15T16:38:25.581Z,88.18
2022-12-15T16:41:18.757Z,96.45
2022-12-15T16:43:50.398Z,81.78
2022-12-15T16:46:20.155Z,89.45
2022-12-15T16:48:49.288Z,90.38
2022-12-15T16:51:31.588Z,104.93
2022-12-15T16:54:03.850Z,107.05
2022-12-15T16:56:36.417Z,96.53
2022-12-15T16:59:35.655Z,102.43
2022-12-15T17:02:18.447Z,93.88
2022-12-15T17:04:47.394Z,99.28
2022-12-15T17:07:20.458Z,96.55
2022-12-15T17:09:50.201Z,97.45
2022-12-15T17:12:19.847Z,90.93
2022-12-15T17:14:50.303Z,96.30
2022-12-15T17:17:20.061Z,89.03
2022-12-15T17:20:27.528Z,88.68
2022-12-15T17:22:42.644Z,100.05
2022-12-15T17:25:23.714Z,98.57
2022-12-15T17:28:11.826Z,91.45
2022-12-15T17:30:40.019Z,93.40
2022-12-15T17:33:21.667Z,116.97
2022-12-15T17:35:55.683Z,97.55
2022-12-15T17:38:24.311Z,87.13
2022-12-15T17:40:53.152Z,105.32
2022-12-15T17:43:22.871Z,99.68
2022-12-15T17:45:55.738Z,109.80
2022-12-15T17:48:25.875Z,97.22
2022-12-15T17:50:56.995Z,123.13
2022-12-15T17:53:30.735Z,115.97
2022-12-15T17:55:59.691Z,104.82
2022-12-15T17:58:28.129Z,110.25
2022-12-15T18:01:02.647Z,99.35
2022-12-15T18:03:38.339Z,104.35
2022-12-15T18:06:10.469Z,105.82
2022-12-15T18:08:40.395Z,92.53
2022-12-15T18:11:15.816Z,108.45
2022-12-15T18:13:44.339Z,99.10
2022-12-15T18:16:14.383Z,107.07
2022-12-15T18:18:42.897Z,99.10
2022-12-15T18:21:15.937Z,98.45
2022-12-15T18:23:47.586Z,99.75
2022-12-15T18:26:18.265Z,106.63
2022-12-15T18:28:49.591Z,103.18
2022-12-15T18:31:20.964Z,95.50
2022-12-15T18:33:49.957Z,103.35
2022-12-15T18:36:23.030Z,93.00
2022-12-15T18:38:52.716Z,89.80
2022-12-15T18:41:23.640Z,98.28
2022-12-15T18:43:58.551Z,94.03
2022-12-15T18:46:30.156Z,88.72
2022-12-15T18:49:00.384Z,91.10
2022-12-15T18:51:33.190Z,91.40
2022-12-15T18:54:02.038Z,96.07
2022-12-15T18:56:31.712Z,96.47
2022-12-15T18:59:00.407Z,87.95
2022-12-15T19:01:33.128Z,71.90
2022-12-15T19:04:02.056Z,96.38
2022-12-15T19:06:35.758Z,97.93
2022-12-15T19:09:06.995Z,88.35
2022-12-15T19:11:36.553Z,86.10
2022-12-15T19:14:25.805Z,96.53
2022-12-15T19:17:16.011Z,95.90
2022-12-15T19:20:06.783Z,97.47
2022-12-15T19:22:40.966Z,85.80
2022-12-15T19:25:11.385Z,91.30
2022-12-15T19:27:40.923Z,102.93
2022-12-15T19:30:16.548Z,98.40
2022-12-15T19:32:57.780Z,100.97
2022-12-15T19:35:29.229Z,103.07
2022-12-15T19:38:02.409Z,94.53
2022-12-15T19:40:34.937Z,94.15
2022-12-15T19:43:07.919Z,92.78
2022-12-15T19:45:36.786Z,96.90
2022-12-15T19:48:06.263Z,104.00
2022-12-15T19:50:37.282Z,102.32
2022-12-15T19:53:17.496Z,95.97
2022-12-15T19:55:47.990Z,93.18
2022-12-15T19:58:25.235Z,95.50
2022-12-15T20:00:56.823Z,94.57
2022-12-15T20:03:34.695Z,107.65
2022-12-15T20:06:11.803Z,98.40
2022-12-15T20:08:45.428Z,105.65
2022-12-15T20:11:24.603Z,93.72
2022-12-15T20:13:56.594Z,107.25
2022-12-15T20:16:25.136Z,96.13
2022-12-15T20:18:55.963Z,91.57
2022-12-15T20:21:31.183Z,102.90
2022-12-15T20:24:07.253Z,107.00
2022-12-15T20:26:40.236Z,102.55
2022-12-15T20:29:33.640Z,100.28
2022-12-15T20:32:02.767Z,98.00
2022-12-15T20:34:35.070Z,100.85
2022-12-15T20:37:05.278Z,102.05
2022-12-15T20:39:38.467Z,94.60
2022-12-15T20:42:14.911Z,91.70
2022-12-15T20:44:50.941Z,94.07
2022-12-15T20:47:23.955Z,92.75
2022-12-15T20:49:56.019Z,94.75
2022-12-15T20:52:27.943Z,99.95
2022-12-15T20:54:59.291Z,97.82
2022-12-15T20:57:28.048Z,104.97
2022-12-15T20:59:57.438Z,103.25
2022-12-15T21:02:47.788Z,103.60
2022-12-15T21:05:18.874Z,92.95
2022-12-15T21:07:52.205Z,100.00
2022-12-15T21:10:22.272Z,96.22
2022-12-15T21:12:59.695Z,93.22
2022-12-15T21:15:30.159Z,97.30
2022-12-15T21:18:36.541Z,87.00
2022-12-15T21:20:53.918Z,114.38
2022-12-15T21:23:27.397Z,113.47
2022-12-15T21:25:59.828Z,120.07
2022-12-15T21:28:28.952Z,108.93
2022-12-15T21:30:58.220Z,91.38
2022-12-15T21:33:32.257Z,97.70
2022-12-15T21:36:04.421Z,92.07
2022-12-15T21:38:39.679Z,96.70
2022-12-15T21:41:12.624Z,95.70
2022-12-15T21:43:43.051Z,109.95
2022-12-15T21:46:20.552Z,95.93
2022-12-15T21:49:18.051Z,112.72
2022-12-15T21:51:55.035Z,122.97
2022-12-15T21:54:32.412Z,112.78
2022-12-15T21:57:02.793Z,101.55
2022-12-15T21:59:33.409Z,101.63
2022-12-15T22:02:02.324Z,94.40
2022-12-15T22:04:37.978Z,104.50
2022-12-15T22:07:13.070Z,83.05
2022-12-15T22:09:41.430Z,99.15
2022-12-15T22:12:17.076Z,101.15
2022-12-15T22:14:49.988Z,93.20
2022-12-15T22:17:22.484Z,95.03
2022-12-15T22:19:55.623Z,85.72
2022-12-15T22:22:30.090Z,86.78
2022-12-15T22:25:04.205Z,82.93
2022-12-15T22:27:35.433Z,91.85
2022-12-15T22:30:07.143Z,90.95
2022-12-15T22:32:44.085Z,81.30
2022-12-15T22:35:23.513Z,83.00
2022-12-15T22:37:56.026Z,87.97
2022-12-15T22:40:25.969Z,95.35
2022-12-15T22:42:56.030Z,89.63
2022-12-15T22:45:25.067Z,85.85
2022-12-15T22:47:56.022Z,82.40
2022-12-15T22:50:27.187Z,84.93
2022-12-15T22:52:55.835Z,79.82
2022-12-15T22:55:24.604Z,88.78
2022-12-15T22:58:03.289Z,86.60
2022-12-15T23:00:32.934Z,79.00
2022-12-15T23:03:11.286Z,79.00
2022-12-15T23:05:42.769Z,88.43
2022-12-15T23:08:11.851Z,76.80
2022-12-15T23:11:01.818Z,62.22
2022-12-15T23:13:31.369Z,81.60
2022-12-15T23:18:54.766Z,80.00
2022-12-15T23:21:24.277Z,89.68
2022-12-15T23:23:53.340Z,78.70
2022-12-15T23:26:23.721Z,83.50
2022-12-15T23:28:55.117Z,87.97
2022-12-15T23:31:24.628Z,75.97
2022-12-15T23:33:54.808Z,76.07
2022-12-15T23:36:24.102Z,77.07
2022-12-15T23:38:55.051Z,80.78
2022-12-15T23:41:24.115Z,83.70
2022-12-15T23:43:55.859Z,96.68
2022-12-15T23:46:28.567Z,72.20
2022-12-15T23:48:58.766Z,82.80
2022-12-15T23:51:30.381Z,72.97
2022-12-15T23:53:58.654Z,81.18
2022-12-15T23:56:27.149Z,75.53
2022-12-15T23:58:59.036Z,74.13
